Hlavní strana
METAR-TAF:

METAR-TAF

Letiště :

Rivas, Nikaragua

zeměpisná šířka: 11-25N, zeměpisná délka: 085-50W, výška: 53 m

Aktuální stav počasí

Zpráva byla vytvořena před 11 hodinami a 37 minutami, v 23:00 UTC
Severovýchodní vítr 4 kt
Teplota 27°C
Vlhkost vzduchu 66%
Tlak 1010 hPa
Viditelnost 10 km a více
Žádná oblačnost pod 1500 m, nevyskytují se cumulonimby.

METAR: MNRS 232300Z 05004KT CAVOK 27/20 Q1010

Čas: 04:37 (10:37 UTC)


TAF: chybějící

Stav a předpovědi počasí z více než 4 000 letišť (zprávy METAR a TAF).

Červené a žluté tečky na mapě představují dostupné meteorologické stanice.

Když kurzor umístíte na tečku, zobrazí se název stanice.

Pak kliknutím zobrazíte stav a předpověď počasí.

Chcete-li změnit mapu, kliknutím na zelené tlačítko se znaménkem +mapu přiblížíte, kliknutím na zelené tlačítko se znaménkem – mapu oddálíte a kliknutím na zelené šipky přejdete na sousední mapy.


METAR-TAF: